sensor_id;sensor_type;location;lat;lon;timestamp;temperature;humidity
14531;DHT22;7352;50.866;4.366;2023-04-24T00:02:12;11.30;99.90
14531;DHT22;7352;50.866;4.366;2023-04-24T00:04:40;11.30;99.90
14531;DHT22;7352;50.866;4.366;2023-04-24T00:07:11;11.40;99.90
14531;DHT22;7352;50.866;4.366;2023-04-24T00:09:38;11.30;99.90
14531;DHT22;7352;50.866;4.366;2023-04-24T00:12:05;11.40;99.90
14531;DHT22;7352;50.866;4.366;2023-04-24T00:14:32;11.20;99.90
14531;DHT22;7352;50.866;4.366;2023-04-24T00:17:00;11.20;99.90
14531;DHT22;7352;50.866;4.366;2023-04-24T00:19:30;11.10;99.90
14531;DHT22;7352;50.866;4.366;2023-04-24T00:21:57;11.00;99.90
14531;DHT22;7352;50.866;4.366;2023-04-24T00:24:26;11.00;99.90
14531;DHT22;7352;50.866;4.366;2023-04-24T00:26:56;11.10;99.90
14531;DHT22;7352;50.866;4.366;2023-04-24T00:29:29;11.00;99.90
14531;DHT22;7352;50.866;4.366;2023-04-24T00:31:58;11.00;99.90
14531;DHT22;7352;50.866;4.366;2023-04-24T00:34:25;11.10;99.90
14531;DHT22;7352;50.866;4.366;2023-04-24T00:36:54;11.10;99.90
14531;DHT22;7352;50.866;4.366;2023-04-24T00:39:22;11.20;99.90
14531;DHT22;7352;50.866;4.366;2023-04-24T00:41:51;11.20;99.90
14531;DHT22;7352;50.866;4.366;2023-04-24T00:44:19;11.10;99.90
14531;DHT22;7352;50.866;4.366;2023-04-24T00:46:46;11.00;99.90
14531;DHT22;7352;50.866;4.366;2023-04-24T00:49:18;11.10;99.90
14531;DHT22;7352;50.866;4.366;2023-04-24T00:51:45;11.00;99.90
14531;DHT22;7352;50.866;4.366;2023-04-24T00:54:12;11.10;99.90
14531;DHT22;7352;50.866;4.366;2023-04-24T00:56:40;11.20;99.90
14531;DHT22;7352;50.866;4.366;2023-04-24T00:59:10;11.10;99.90
14531;DHT22;7352;50.866;4.366;2023-04-24T01:01:38;11.10;99.90
14531;DHT22;7352;50.866;4.366;2023-04-24T01:04:08;11.10;99.90
14531;DHT22;7352;50.866;4.366;2023-04-24T01:06:38;11.00;99.90
14531;DHT22;7352;50.866;4.366;2023-04-24T01:09:08;11.00;99.90
14531;DHT22;7352;50.866;4.366;2023-04-24T01:11:40;11.00;99.90
14531;DHT22;7352;50.866;4.366;2023-04-24T01:14:10;11.00;99.90
14531;DHT22;7352;50.866;4.366;2023-04-24T01:16:39;11.00;99.90
14531;DHT22;7352;50.866;4.366;2023-04-24T01:19:07;11.00;99.90
14531;DHT22;7352;50.866;4.366;2023-04-24T01:21:37;11.10;99.90
14531;DHT22;7352;50.866;4.366;2023-04-24T01:24:07;11.10;99.90
14531;DHT22;7352;50.866;4.366;2023-04-24T01:26:34;11.00;99.90
14531;DHT22;7352;50.866;4.366;2023-04-24T01:29:02;11.00;99.90
14531;DHT22;7352;50.866;4.366;2023-04-24T01:31:30;11.00;99.90
14531;DHT22;7352;50.866;4.366;2023-04-24T01:33:58;11.00;99.90
14531;DHT22;7352;50.866;4.366;2023-04-24T01:36:27;10.90;99.90
14531;DHT22;7352;50.866;4.366;2023-04-24T01:38:55;10.90;99.90
14531;DHT22;7352;50.866;4.366;2023-04-24T01:41:24;10.90;99.90
14531;DHT22;7352;50.866;4.366;2023-04-24T01:43:57;11.00;99.90
14531;DHT22;7352;50.866;4.366;2023-04-24T01:46:24;10.90;99.90
14531;DHT22;7352;50.866;4.366;2023-04-24T01:48:52;10.80;99.90
14531;DHT22;7352;50.866;4.366;2023-04-24T01:51:19;10.90;99.90
14531;DHT22;7352;50.866;4.366;2023-04-24T01:53:48;10.80;99.90
14531;DHT22;7352;50.866;4.366;2023-04-24T01:56:19;10.80;99.90
14531;DHT22;7352;50.866;4.366;2023-04-24T01:58:50;10.90;99.90
14531;DHT22;7352;50.866;4.366;2023-04-24T02:01:18;10.90;99.90
14531;DHT22;7352;50.866;4.366;2023-04-24T02:03:46;10.90;99.90
14531;DHT22;7352;50.866;4.366;2023-04-24T02:06:13;10.90;99.90
14531;DHT22;7352;50.866;4.366;2023-04-24T02:08:42;10.80;99.90
14531;DHT22;7352;50.866;4.366;2023-04-24T02:11:09;10.90;99.90
14531;DHT22;7352;50.866;4.366;2023-04-24T02:13:37;10.80;99.90
14531;DHT22;7352;50.866;4.366;2023-04-24T02:16:06;10.70;99.90
14531;DHT22;7352;50.866;4.366;2023-04-24T02:18:33;10.70;99.90
14531;DHT22;7352;50.866;4.366;2023-04-24T02:21:02;10.80;99.90
14531;DHT22;7352;50.866;4.366;2023-04-24T02:23:32;11.00;99.90
14531;DHT22;7352;50.866;4.366;2023-04-24T02:26:01;11.00;99.90
14531;DHT22;7352;50.866;4.366;2023-04-24T02:28:30;11.00;99.90
14531;DHT22;7352;50.866;4.366;2023-04-24T02:30:57;10.90;99.90
14531;DHT22;7352;50.866;4.366;2023-04-24T02:33:28;10.90;99.90
14531;DHT22;7352;50.866;4.366;2023-04-24T02:35:55;10.90;99.90
14531;DHT22;7352;50.866;4.366;2023-04-24T02:38:28;10.90;99.90
14531;DHT22;7352;50.866;4.366;2023-04-24T02:40:55;10.80;99.90
14531;DHT22;7352;50.866;4.366;2023-04-24T02:43:23;10.80;99.90
14531;DHT22;7352;50.866;4.366;2023-04-24T02:45:51;10.90;99.90
14531;DHT22;7352;50.866;4.366;2023-04-24T02:48:18;10.70;99.90
14531;DHT22;7352;50.866;4.366;2023-04-24T02:50:48;10.70;99.90
14531;DHT22;7352;50.866;4.366;2023-04-24T02:53:16;10.70;99.90
14531;DHT22;7352;50.866;4.366;2023-04-24T02:55:43;10.60;99.90
14531;DHT22;7352;50.866;4.366;2023-04-24T02:58:11;10.70;99.90
14531;DHT22;7352;50.866;4.366;2023-04-24T03:00:40;10.70;99.90
14531;DHT22;7352;50.866;4.366;2023-04-24T03:03:09;10.60;99.90
14531;DHT22;7352;50.866;4.366;2023-04-24T03:05:37;10.60;99.90
14531;DHT22;7352;50.866;4.366;2023-04-24T03:08:16;10.60;99.90
14531;DHT22;7352;50.866;4.366;2023-04-24T03:10:48;10.60;99.90
14531;DHT22;7352;50.866;4.366;2023-04-24T03:13:15;10.60;99.90
14531;DHT22;7352;50.866;4.366;2023-04-24T03:15:42;10.60;99.90
14531;DHT22;7352;50.866;4.366;2023-04-24T03:18:10;10.40;99.90
14531;DHT22;7352;50.866;4.366;2023-04-24T03:20:37;10.50;99.90
14531;DHT22;7352;50.866;4.366;2023-04-24T03:23:06;10.50;99.90
14531;DHT22;7352;50.866;4.366;2023-04-24T03:25:35;10.60;99.90
14531;DHT22;7352;50.866;4.366;2023-04-24T03:28:03;10.50;99.90
14531;DHT22;7352;50.866;4.366;2023-04-24T03:30:30;10.50;99.90
14531;DHT22;7352;50.866;4.366;2023-04-24T03:32:58;10.50;99.90
14531;DHT22;7352;50.866;4.366;2023-04-24T03:35:25;10.50;99.90
14531;DHT22;7352;50.866;4.366;2023-04-24T03:37:52;10.40;99.90
14531;DHT22;7352;50.866;4.366;2023-04-24T03:40:23;10.60;99.90
14531;DHT22;7352;50.866;4.366;2023-04-24T03:42:50;10.40;99.90
14531;DHT22;7352;50.866;4.366;2023-04-24T03:45:18;10.40;99.90
14531;DHT22;7352;50.866;4.366;2023-04-24T03:47:45;10.30;99.90
14531;DHT22;7352;50.866;4.366;2023-04-24T03:50:12;10.30;99.90
14531;DHT22;7352;50.866;4.366;2023-04-24T03:52:40;10.30;99.90
14531;DHT22;7352;50.866;4.366;2023-04-24T03:55:08;10.40;99.90
14531;DHT22;7352;50.866;4.366;2023-04-24T03:57:39;10.50;99.90
14531;DHT22;7352;50.866;4.366;2023-04-24T04:00:07;10.50;99.90
14531;DHT22;7352;50.866;4.366;2023-04-24T04:02:35;10.50;99.90
14531;DHT22;7352;50.866;4.366;2023-04-24T04:05:02;10.50;99.90
14531;DHT22;7352;50.866;4.366;2023-04-24T04:07:29;10.60;99.90
14531;DHT22;7352;50.866;4.366;2023-04-24T04:09:56;10.60;99.90
14531;DHT22;7352;50.866;4.366;2023-04-24T04:12:25;10.60;99.90
14531;DHT22;7352;50.866;4.366;2023-04-24T04:14:54;10.60;99.90
14531;DHT22;7352;50.866;4.366;2023-04-24T04:17:21;10.70;99.90
14531;DHT22;7352;50.866;4.366;2023-04-24T04:19:48;10.60;99.90
14531;DHT22;7352;50.866;4.366;2023-04-24T04:22:16;10.70;99.90
14531;DHT22;7352;50.866;4.366;2023-04-24T04:24:44;10.60;99.90
14531;DHT22;7352;50.866;4.366;2023-04-24T04:27:12;10.60;99.90
14531;DHT22;7352;50.866;4.366;2023-04-24T04:29:39;10.60;99.90
14531;DHT22;7352;50.866;4.366;2023-04-24T04:32:09;10.60;99.90
14531;DHT22;7352;50.866;4.366;2023-04-24T04:34:36;10.70;99.90
14531;DHT22;7352;50.866;4.366;2023-04-24T04:37:05;10.70;99.90
14531;DHT22;7352;50.866;4.366;2023-04-24T04:39:32;10.70;99.90
14531;DHT22;7352;50.866;4.366;2023-04-24T04:41:59;10.60;99.90
14531;DHT22;7352;50.866;4.366;2023-04-24T04:44:26;10.40;99.90
14531;DHT22;7352;50.866;4.366;2023-04-24T04:46:54;10.40;99.90
14531;DHT22;7352;50.866;4.366;2023-04-24T04:49:23;10.40;99.90
14531;DHT22;7352;50.866;4.366;2023-04-24T04:51:51;10.30;99.90
14531;DHT22;7352;50.866;4.366;2023-04-24T04:54:18;10.30;99.90
14531;DHT22;7352;50.866;4.366;2023-04-24T04:56:45;10.20;99.90
14531;DHT22;7352;50.866;4.366;2023-04-24T04:59:12;10.10;99.90
14531;DHT22;7352;50.866;4.366;2023-04-24T05:01:40;10.10;99.90
14531;DHT22;7352;50.866;4.366;2023-04-24T05:04:07;10.30;99.90
14531;DHT22;7352;50.866;4.366;2023-04-24T05:06:35;10.30;99.90
14531;DHT22;7352;50.866;4.366;2023-04-24T05:09:03;10.10;99.90
14531;DHT22;7352;50.866;4.366;2023-04-24T05:11:33;10.00;99.90
14531;DHT22;7352;50.866;4.366;2023-04-24T05:14:03;9.80;99.90
14531;DHT22;7352;50.866;4.366;2023-04-24T05:16:30;9.80;99.90
14531;DHT22;7352;50.866;4.366;2023-04-24T05:18:58;9.80;99.90
14531;DHT22;7352;50.866;4.366;2023-04-24T05:21:25;9.80;99.90
14531;DHT22;7352;50.866;4.366;2023-04-24T05:23:55;10.00;99.90
14531;DHT22;7352;50.866;4.366;2023-04-24T05:26:22;9.90;99.90
14531;DHT22;7352;50.866;4.366;2023-04-24T05:28:49;9.80;99.90
14531;DHT22;7352;50.866;4.366;2023-04-24T05:31:17;9.80;99.90
14531;DHT22;7352;50.866;4.366;2023-04-24T05:33:45;9.80;99.90
14531;DHT22;7352;50.866;4.366;2023-04-24T05:36:16;9.90;99.90
14531;DHT22;7352;50.866;4.366;2023-04-24T05:38:46;9.80;99.90
14531;DHT22;7352;50.866;4.366;2023-04-24T05:41:15;9.80;99.90
14531;DHT22;7352;50.866;4.366;2023-04-24T05:43:50;9.90;99.90
14531;DHT22;7352;50.866;4.366;2023-04-24T05:46:25;10.00;99.90
14531;DHT22;7352;50.866;4.366;2023-04-24T05:48:52;9.90;99.90
14531;DHT22;7352;50.866;4.366;2023-04-24T05:51:23;10.00;99.90
14531;DHT22;7352;50.866;4.366;2023-04-24T05:53:51;10.10;99.90
14531;DHT22;7352;50.866;4.366;2023-04-24T05:56:20;10.20;99.90
14531;DHT22;7352;50.866;4.366;2023-04-24T05:58:47;10.20;99.90
14531;DHT22;7352;50.866;4.366;2023-04-24T06:01:14;10.10;99.90
14531;DHT22;7352;50.866;4.366;2023-04-24T06:03:43;10.00;99.90
14531;DHT22;7352;50.866;4.366;2023-04-24T06:06:12;10.00;99.90
14531;DHT22;7352;50.866;4.366;2023-04-24T06:08:41;10.00;99.90
14531;DHT22;7352;50.866;4.366;2023-04-24T06:11:09;9.90;99.90
14531;DHT22;7352;50.866;4.366;2023-04-24T06:13:38;9.80;99.90
14531;DHT22;7352;50.866;4.366;2023-04-24T06:16:05;10.00;99.90
14531;DHT22;7352;50.866;4.366;2023-04-24T06:18:32;9.90;99.90
14531;DHT22;7352;50.866;4.366;2023-04-24T06:20:59;9.90;99.90
14531;DHT22;7352;50.866;4.366;2023-04-24T06:23:26;9.90;99.90
14531;DHT22;7352;50.866;4.366;2023-04-24T06:25:53;9.90;99.90
14531;DHT22;7352;50.866;4.366;2023-04-24T06:28:21;9.90;99.90
14531;DHT22;7352;50.866;4.366;2023-04-24T06:30:49;10.00;99.90
14531;DHT22;7352;50.866;4.366;2023-04-24T06:33:19;10.00;99.90
14531;DHT22;7352;50.866;4.366;2023-04-24T06:35:49;10.10;99.90
14531;DHT22;7352;50.866;4.366;2023-04-24T06:38:23;10.10;99.90
14531;DHT22;7352;50.866;4.366;2023-04-24T06:40:53;10.10;99.90
14531;DHT22;7352;50.866;4.366;2023-04-24T06:43:21;10.20;99.90
14531;DHT22;7352;50.866;4.366;2023-04-24T06:45:51;10.10;99.90
14531;DHT22;7352;50.866;4.366;2023-04-24T06:48:19;10.10;99.90
14531;DHT22;7352;50.866;4.366;2023-04-24T06:50:46;10.20;99.90
14531;DHT22;7352;50.866;4.366;2023-04-24T06:53:24;10.40;99.90
14531;DHT22;7352;50.866;4.366;2023-04-24T06:55:53;10.40;99.90
14531;DHT22;7352;50.866;4.366;2023-04-24T06:58:21;10.40;99.90
14531;DHT22;7352;50.866;4.366;2023-04-24T07:00:52;10.50;99.90
14531;DHT22;7352;50.866;4.366;2023-04-24T07:03:20;10.40;99.90
14531;DHT22;7352;50.866;4.366;2023-04-24T07:05:48;10.30;99.90
14531;DHT22;7352;50.866;4.366;2023-04-24T07:08:28;10.40;99.90
14531;DHT22;7352;50.866;4.366;2023-04-24T07:11:10;10.40;99.90
14531;DHT22;7352;50.866;4.366;2023-04-24T07:13:38;10.40;99.90
14531;DHT22;7352;50.866;4.366;2023-04-24T07:16:11;10.30;99.90
14531;DHT22;7352;50.866;4.366;2023-04-24T07:18:42;10.30;99.90
14531;DHT22;7352;50.866;4.366;2023-04-24T07:21:20;10.40;99.90
14531;DHT22;7352;50.866;4.366;2023-04-24T07:23:50;10.50;99.90
14531;DHT22;7352;50.866;4.366;2023-04-24T07:26:20;10.60;99.90
14531;DHT22;7352;50.866;4.366;2023-04-24T07:28:47;10.70;99.90
14531;DHT22;7352;50.866;4.366;2023-04-24T07:31:17;10.60;99.90
14531;DHT22;7352;50.866;4.366;2023-04-24T07:33:45;10.70;99.90
14531;DHT22;7352;50.866;4.366;2023-04-24T07:36:12;10.70;99.90
14531;DHT22;7352;50.866;4.366;2023-04-24T07:38:48;10.80;99.90
14531;DHT22;7352;50.866;4.366;2023-04-24T07:41:15;11.10;99.90
14531;DHT22;7352;50.866;4.366;2023-04-24T07:43:44;11.20;99.90
14531;DHT22;7352;50.866;4.366;2023-04-24T07:46:11;11.10;99.90
14531;DHT22;7352;50.866;4.366;2023-04-24T07:48:40;11.10;99.90
14531;DHT22;7352;50.866;4.366;2023-04-24T07:51:09;10.90;99.90
14531;DHT22;7352;50.866;4.366;2023-04-24T07:53:41;11.10;99.90
14531;DHT22;7352;50.866;4.366;2023-04-24T07:56:10;11.20;99.90
14531;DHT22;7352;50.866;4.366;2023-04-24T07:58:38;11.30;99.90
14531;DHT22;7352;50.866;4.366;2023-04-24T08:01:05;11.40;99.90
14531;DHT22;7352;50.866;4.366;2023-04-24T08:03:32;11.50;99.90
14531;DHT22;7352;50.866;4.366;2023-04-24T08:06:01;11.70;99.90
14531;DHT22;7352;50.866;4.366;2023-04-24T08:08:28;11.70;99.90
14531;DHT22;7352;50.866;4.366;2023-04-24T08:10:55;11.70;99.90
14531;DHT22;7352;50.866;4.366;2023-04-24T08:13:22;11.60;99.90
14531;DHT22;7352;50.866;4.366;2023-04-24T08:15:50;11.50;99.90
14531;DHT22;7352;50.866;4.366;2023-04-24T08:18:18;11.40;99.90
14531;DHT22;7352;50.866;4.366;2023-04-24T08:20:48;11.30;99.90
14531;DHT22;7352;50.866;4.366;2023-04-24T08:23:18;11.40;99.90
14531;DHT22;7352;50.866;4.366;2023-04-24T08:25:51;11.50;99.90
14531;DHT22;7352;50.866;4.366;2023-04-24T08:28:24;11.70;99.90
14531;DHT22;7352;50.866;4.366;2023-04-24T08:30:52;11.70;99.90
14531;DHT22;7352;50.866;4.366;2023-04-24T08:33:20;11.70;99.90
14531;DHT22;7352;50.866;4.366;2023-04-24T08:35:47;11.80;99.90
14531;DHT22;7352;50.866;4.366;2023-04-24T08:38:15;11.80;99.90
14531;DHT22;7352;50.866;4.366;2023-04-24T08:40:44;12.00;99.90
14531;DHT22;7352;50.866;4.366;2023-04-24T08:43:15;12.10;99.90
14531;DHT22;7352;50.866;4.366;2023-04-24T08:45:44;12.10;99.90
14531;DHT22;7352;50.866;4.366;2023-04-24T08:48:12;11.90;99.90
14531;DHT22;7352;50.866;4.366;2023-04-24T08:50:40;12.00;99.90
14531;DHT22;7352;50.866;4.366;2023-04-24T08:53:10;12.10;99.90
14531;DHT22;7352;50.866;4.366;2023-04-24T08:55:37;12.10;99.90
14531;DHT22;7352;50.866;4.366;2023-04-24T08:58:06;12.00;99.90
14531;DHT22;7352;50.866;4.366;2023-04-24T09:00:34;11.90;99.90
14531;DHT22;7352;50.866;4.366;2023-04-24T09:03:04;11.90;99.90
14531;DHT22;7352;50.866;4.366;2023-04-24T09:05:33;11.90;99.90
14531;DHT22;7352;50.866;4.366;2023-04-24T09:08:08;12.00;99.90
14531;DHT22;7352;50.866;4.366;2023-04-24T09:10:39;12.20;99.90
14531;DHT22;7352;50.866;4.366;2023-04-24T09:13:13;12.40;99.90
14531;DHT22;7352;50.866;4.366;2023-04-24T09:15:42;12.70;99.90
14531;DHT22;7352;50.866;4.366;2023-04-24T09:18:10;12.70;99.90
14531;DHT22;7352;50.866;4.366;2023-04-24T09:20:59;12.60;99.90
14531;DHT22;7352;50.866;4.366;2023-04-24T09:23:28;12.40;99.90
14531;DHT22;7352;50.866;4.366;2023-04-24T09:26:02;12.50;99.90
14531;DHT22;7352;50.866;4.366;2023-04-24T09:28:34;12.50;99.90
14531;DHT22;7352;50.866;4.366;2023-04-24T09:31:06;12.30;99.90
14531;DHT22;7352;50.866;4.366;2023-04-24T09:33:35;12.30;99.90
14531;DHT22;7352;50.866;4.366;2023-04-24T09:36:03;12.40;99.90
14531;DHT22;7352;50.866;4.366;2023-04-24T09:38:33;12.40;99.90
14531;DHT22;7352;50.866;4.366;2023-04-24T09:41:01;12.50;99.90
14531;DHT22;7352;50.866;4.366;2023-04-24T09:43:31;12.60;99.90
14531;DHT22;7352;50.866;4.366;2023-04-24T09:45:59;12.70;99.90
14531;DHT22;7352;50.866;4.366;2023-04-24T09:48:30;12.90;99.90
14531;DHT22;7352;50.866;4.366;2023-04-24T09:51:00;13.00;99.90
14531;DHT22;7352;50.866;4.366;2023-04-24T09:53:27;13.20;99.90
14531;DHT22;7352;50.866;4.366;2023-04-24T09:55:55;13.30;99.90
14531;DHT22;7352;50.866;4.366;2023-04-24T09:58:26;13.10;99.90
14531;DHT22;7352;50.866;4.366;2023-04-24T10:00:58;13.20;99.90
14531;DHT22;7352;50.866;4.366;2023-04-24T10:03:25;13.10;99.90
14531;DHT22;7352;50.866;4.366;2023-04-24T10:05:58;13.10;99.90
14531;DHT22;7352;50.866;4.366;2023-04-24T10:08:27;13.10;99.90
14531;DHT22;7352;50.866;4.366;2023-04-24T10:11:00;13.20;99.90
14531;DHT22;7352;50.866;4.366;2023-04-24T10:13:28;13.10;99.90
14531;DHT22;7352;50.866;4.366;2023-04-24T10:15:57;13.50;99.90
14531;DHT22;7352;50.866;4.366;2023-04-24T10:18:26;13.60;99.90
14531;DHT22;7352;50.866;4.366;2023-04-24T10:21:00;13.60;99.90
14531;DHT22;7352;50.866;4.366;2023-04-24T10:23:28;13.60;99.90
14531;DHT22;7352;50.866;4.366;2023-04-24T10:25:57;13.70;99.90
14531;DHT22;7352;50.866;4.366;2023-04-24T10:28:30;13.80;99.90
14531;DHT22;7352;50.866;4.366;2023-04-24T10:31:00;13.90;99.90
14531;DHT22;7352;50.866;4.366;2023-04-24T10:33:28;13.80;99.90
14531;DHT22;7352;50.866;4.366;2023-04-24T10:35:56;13.80;99.90
14531;DHT22;7352;50.866;4.366;2023-04-24T10:38:25;14.00;99.90
14531;DHT22;7352;50.866;4.366;2023-04-24T10:40:58;14.10;99.90
14531;DHT22;7352;50.866;4.366;2023-04-24T10:43:40;14.20;99.90
14531;DHT22;7352;50.866;4.366;2023-04-24T10:46:09;13.80;99.90
14531;DHT22;7352;50.866;4.366;2023-04-24T10:48:42;13.70;99.60
14531;DHT22;7352;50.866;4.366;2023-04-24T10:51:12;13.80;99.90
14531;DHT22;7352;50.866;4.366;2023-04-24T10:53:39;14.00;99.90
14531;DHT22;7352;50.866;4.366;2023-04-24T10:56:09;14.10;99.90
14531;DHT22;7352;50.866;4.366;2023-04-24T10:58:38;14.20;99.90
14531;DHT22;7352;50.866;4.366;2023-04-24T11:01:23;14.20;99.90
14531;DHT22;7352;50.866;4.366;2023-04-24T11:03:54;14.00;99.90
14531;DHT22;7352;50.866;4.366;2023-04-24T11:06:29;13.90;99.90
14531;DHT22;7352;50.866;4.366;2023-04-24T11:09:02;13.80;99.90
14531;DHT22;7352;50.866;4.366;2023-04-24T11:11:31;13.60;99.90
14531;DHT22;7352;50.866;4.366;2023-04-24T11:14:03;13.70;99.90
14531;DHT22;7352;50.866;4.366;2023-04-24T11:16:45;14.00;99.90
14531;DHT22;7352;50.866;4.366;2023-04-24T11:19:22;14.10;99.90
14531;DHT22;7352;50.866;4.366;2023-04-24T11:21:59;14.30;99.60
14531;DHT22;7352;50.866;4.366;2023-04-24T11:24:31;14.50;99.80
14531;DHT22;7352;50.866;4.366;2023-04-24T11:27:01;14.50;99.40
14531;DHT22;7352;50.866;4.366;2023-04-24T11:29:46;14.30;99.50
14531;DHT22;7352;50.866;4.366;2023-04-24T11:32:23;14.30;99.90
14531;DHT22;7352;50.866;4.366;2023-04-24T11:34:51;14.50;99.70
14531;DHT22;7352;50.866;4.366;2023-04-24T11:37:19;14.60;98.70
14531;DHT22;7352;50.866;4.366;2023-04-24T11:39:46;14.50;98.30
14531;DHT22;7352;50.866;4.366;2023-04-24T11:42:15;14.50;97.70
14531;DHT22;7352;50.866;4.366;2023-04-24T11:44:42;14.60;98.00
14531;DHT22;7352;50.866;4.366;2023-04-24T11:47:10;14.70;98.80
14531;DHT22;7352;50.866;4.366;2023-04-24T11:49:39;15.00;99.60
14531;DHT22;7352;50.866;4.366;2023-04-24T11:52:06;15.00;98.00
14531;DHT22;7352;50.866;4.366;2023-04-24T11:54:34;14.60;97.90
14531;DHT22;7352;50.866;4.366;2023-04-24T11:57:04;14.50;99.10
14531;DHT22;7352;50.866;4.366;2023-04-24T11:59:36;14.60;99.10
14531;DHT22;7352;50.866;4.366;2023-04-24T12:02:20;14.70;99.10
14531;DHT22;7352;50.866;4.366;2023-04-24T12:04:49;14.50;99.00
14531;DHT22;7352;50.866;4.366;2023-04-24T12:07:17;14.30;99.30
14531;DHT22;7352;50.866;4.366;2023-04-24T12:09:46;14.20;99.20
14531;DHT22;7352;50.866;4.366;2023-04-24T12:12:16;14.20;99.20
14531;DHT22;7352;50.866;4.366;2023-04-24T12:14:49;14.20;98.50
14531;DHT22;7352;50.866;4.366;2023-04-24T12:17:17;14.40;98.50
14531;DHT22;7352;50.866;4.366;2023-04-24T12:19:46;14.50;97.90
14531;DHT22;7352;50.866;4.366;2023-04-24T12:22:15;14.60;97.30
14531;DHT22;7352;50.866;4.366;2023-04-24T12:25:00;14.60;96.10
14531;DHT22;7352;50.866;4.366;2023-04-24T12:27:32;14.60;97.00
14531;DHT22;7352;50.866;4.366;2023-04-24T12:30:01;14.80;97.10
14531;DHT22;7352;50.866;4.366;2023-04-24T12:32:28;15.10;96.40
14531;DHT22;7352;50.866;4.366;2023-04-24T12:34:56;15.20;96.50
14531;DHT22;7352;50.866;4.366;2023-04-24T12:37:25;15.20;95.30
14531;DHT22;7352;50.866;4.366;2023-04-24T12:40:00;15.00;95.60
14531;DHT22;7352;50.866;4.366;2023-04-24T12:42:29;15.00;96.20
14531;DHT22;7352;50.866;4.366;2023-04-24T12:44:57;15.00;96.20
14531;DHT22;7352;50.866;4.366;2023-04-24T12:47:30;14.90;95.90
14531;DHT22;7352;50.866;4.366;2023-04-24T12:49:57;14.80;95.80
14531;DHT22;7352;50.866;4.366;2023-04-24T12:52:28;14.90;96.30
14531;DHT22;7352;50.866;4.366;2023-04-24T12:54:57;15.20;95.60
14531;DHT22;7352;50.866;4.366;2023-04-24T12:57:25;15.40;95.80
14531;DHT22;7352;50.866;4.366;2023-04-24T12:59:54;15.40;95.60
14531;DHT22;7352;50.866;4.366;2023-04-24T13:02:22;15.60;96.10
14531;DHT22;7352;50.866;4.366;2023-04-24T13:04:50;15.50;95.70
14531;DHT22;7352;50.866;4.366;2023-04-24T13:07:18;15.40;95.40
14531;DHT22;7352;50.866;4.366;2023-04-24T13:09:48;15.20;95.60
14531;DHT22;7352;50.866;4.366;2023-04-24T13:12:16;15.20;95.90
14531;DHT22;7352;50.866;4.366;2023-04-24T13:14:44;15.20;96.20
14531;DHT22;7352;50.866;4.366;2023-04-24T13:17:11;15.00;95.60
14531;DHT22;7352;50.866;4.366;2023-04-24T13:19:40;14.80;96.00
14531;DHT22;7352;50.866;4.366;2023-04-24T13:22:09;14.80;95.30
14531;DHT22;7352;50.866;4.366;2023-04-24T13:24:37;14.70;95.60
14531;DHT22;7352;50.866;4.366;2023-04-24T13:27:07;14.90;95.90
14531;DHT22;7352;50.866;4.366;2023-04-24T13:29:35;15.10;96.00
14531;DHT22;7352;50.866;4.366;2023-04-24T13:32:08;15.40;96.30
14531;DHT22;7352;50.866;4.366;2023-04-24T13:34:35;15.60;96.40
14531;DHT22;7352;50.866;4.366;2023-04-24T13:37:05;15.60;94.70
14531;DHT22;7352;50.866;4.366;2023-04-24T13:39:33;15.40;94.10
14531;DHT22;7352;50.866;4.366;2023-04-24T13:42:01;15.40;94.40
14531;DHT22;7352;50.866;4.366;2023-04-24T13:44:30;15.20;93.10
14531;DHT22;7352;50.866;4.366;2023-04-24T13:46:58;15.10;94.10
14531;DHT22;7352;50.866;4.366;2023-04-24T13:49:26;15.40;94.50
14531;DHT22;7352;50.866;4.366;2023-04-24T13:51:55;15.60;93.70
14531;DHT22;7352;50.866;4.366;2023-04-24T13:54:23;15.70;93.00
14531;DHT22;7352;50.866;4.366;2023-04-24T13:56:51;15.80;93.20
14531;DHT22;7352;50.866;4.366;2023-04-24T13:59:19;16.10;93.10
14531;DHT22;7352;50.866;4.366;2023-04-24T14:01:48;16.30;91.90
14531;DHT22;7352;50.866;4.366;2023-04-24T14:04:16;16.50;91.40
14531;DHT22;7352;50.866;4.366;2023-04-24T14:06:44;16.60;91.30
14531;DHT22;7352;50.866;4.366;2023-04-24T14:09:11;16.60;90.50
14531;DHT22;7352;50.866;4.366;2023-04-24T14:11:39;16.70;90.40
14531;DHT22;7352;50.866;4.366;2023-04-24T14:14:06;16.80;89.60
14531;DHT22;7352;50.866;4.366;2023-04-24T14:16:34;16.70;89.00
14531;DHT22;7352;50.866;4.366;2023-04-24T14:19:02;16.70;90.00
14531;DHT22;7352;50.866;4.366;2023-04-24T14:21:31;16.70;91.00
14531;DHT22;7352;50.866;4.366;2023-04-24T14:23:58;16.70;91.50
14531;DHT22;7352;50.866;4.366;2023-04-24T14:26:25;16.60;91.90
14531;DHT22;7352;50.866;4.366;2023-04-24T14:28:52;16.30;92.30
14531;DHT22;7352;50.866;4.366;2023-04-24T14:31:21;16.40;92.10
14531;DHT22;7352;50.866;4.366;2023-04-24T14:33:48;16.20;91.10
14531;DHT22;7352;50.866;4.366;2023-04-24T14:36:17;16.10;92.20
14531;DHT22;7352;50.866;4.366;2023-04-24T14:38:44;16.00;91.60
14531;DHT22;7352;50.866;4.366;2023-04-24T14:41:12;15.80;92.20
14531;DHT22;7352;50.866;4.366;2023-04-24T14:43:40;15.80;92.50
14531;DHT22;7352;50.866;4.366;2023-04-24T14:46:07;15.80;92.40
14531;DHT22;7352;50.866;4.366;2023-04-24T14:48:34;15.80;91.70
14531;DHT22;7352;50.866;4.366;2023-04-24T14:51:04;15.80;91.20
14531;DHT22;7352;50.866;4.366;2023-04-24T14:53:33;15.60;91.90
14531;DHT22;7352;50.866;4.366;2023-04-24T14:56:01;15.20;92.20
14531;DHT22;7352;50.866;4.366;2023-04-24T15:01:47;15.10;93.20
14531;DHT22;7352;50.866;4.366;2023-04-24T15:04:17;15.30;92.70
14531;DHT22;7352;50.866;4.366;2023-04-24T15:06:45;15.50;92.50
14531;DHT22;7352;50.866;4.366;2023-04-24T15:09:15;15.90;92.10
14531;DHT22;7352;50.866;4.366;2023-04-24T15:11:43;16.00;91.60
14531;DHT22;7352;50.866;4.366;2023-04-24T15:14:13;16.00;91.00
14531;DHT22;7352;50.866;4.366;2023-04-24T15:16:40;15.60;90.90
14531;DHT22;7352;50.866;4.366;2023-04-24T15:19:07;15.50;90.90
14531;DHT22;7352;50.866;4.366;2023-04-24T15:21:36;15.50;90.00
14531;DHT22;7352;50.866;4.366;2023-04-24T15:24:04;15.50;91.10
14531;DHT22;7352;50.866;4.366;2023-04-24T15:26:32;15.60;91.50
14531;DHT22;7352;50.866;4.366;2023-04-24T15:29:00;15.40;92.00
14531;DHT22;7352;50.866;4.366;2023-04-24T15:31:27;15.40;91.80
14531;DHT22;7352;50.866;4.366;2023-04-24T15:33:54;15.10;92.20
14531;DHT22;7352;50.866;4.366;2023-04-24T15:36:23;15.20;92.80
14531;DHT22;7352;50.866;4.366;2023-04-24T15:38:50;15.40;91.90
14531;DHT22;7352;50.866;4.366;2023-04-24T15:41:17;15.40;91.80
14531;DHT22;7352;50.866;4.366;2023-04-24T15:43:46;15.50;92.00
14531;DHT22;7352;50.866;4.366;2023-04-24T15:46:13;15.40;91.90
14531;DHT22;7352;50.866;4.366;2023-04-24T15:48:42;15.50;92.00
14531;DHT22;7352;50.866;4.366;2023-04-24T15:51:09;15.20;91.10
14531;DHT22;7352;50.866;4.366;2023-04-24T15:53:36;15.30;92.40
14531;DHT22;7352;50.866;4.366;2023-04-24T15:56:04;15.30;91.70
14531;DHT22;7352;50.866;4.366;2023-04-24T15:58:31;15.20;92.20
14531;DHT22;7352;50.866;4.366;2023-04-24T16:01:01;15.30;91.60
14531;DHT22;7352;50.866;4.366;2023-04-24T16:03:29;15.40;91.90